Time;durP1;ratioP1;P1;durP2;ratioP2;P2;SDS_P1;SDS_P2;PMS_P1;PMS_P2;Temp;Humidity;BMP_temperature;BMP_pressure;BME280_temperature;BME280_humidity;BME280_pressure;Samples;Min_cycle;Max_cycle;Signal;HPM_P1;HPM_P2
2023/10/10 00:02:18;;;;;;;11.88;5.38;;;14.70;99.90;;;;;;4994744;28;20042;-79
2023/10/10 00:04:47;;;;;;;12.98;5.03;;;14.70;99.90;;;;;;5031667;28;20141;-79
2023/10/10 00:07:14;;;;;;;10.20;5.03;;;14.70;99.90;;;;;;5055283;28;20033;-79
2023/10/10 00:09:44;;;;;;;16.95;5.88;;;14.70;99.90;;;;;;5055573;28;20606;-79
2023/10/10 00:12:18;;;;;;;12.35;5.53;;;14.70;99.90;;;;;;5055631;28;20052;-79
2023/10/10 00:14:50;;;;;;;13.35;6.00;;;14.70;99.90;;;;;;5055392;28;20033;-78
2023/10/10 00:17:16;;;;;;;9.85;4.90;;;14.70;99.90;;;;;;5055083;28;20044;-79
2023/10/10 00:19:45;;;;;;;11.70;5.15;;;14.70;99.90;;;;;;5055604;28;20501;-79
2023/10/10 00:22:11;;;;;;;14.65;5.65;;;14.70;99.90;;;;;;5056365;28;20094;-79
2023/10/10 00:24:37;;;;;;;10.93;5.20;;;14.70;99.90;;;;;;5056225;28;20047;-78
2023/10/10 00:27:12;;;;;;;9.73;5.20;;;14.70;99.90;;;;;;5055115;28;20045;-78
2023/10/10 00:29:42;;;;;;;12.10;4.95;;;14.70;99.90;;;;;;5054920;28;20056;-79
2023/10/10 00:32:22;;;;;;;11.85;5.63;;;14.70;99.90;;;;;;5056787;28;20091;-78
2023/10/10 00:34:48;;;;;;;11.65;4.75;;;14.80;99.90;;;;;;5054896;28;20081;-79
2023/10/10 00:37:25;;;;;;;12.77;5.88;;;14.80;99.90;;;;;;5054490;28;20045;-79
2023/10/10 00:39:53;;;;;;;14.45;5.88;;;14.70;99.90;;;;;;5054571;28;20500;-79
2023/10/10 00:42:36;;;;;;;11.77;5.40;;;14.70;99.90;;;;;;5054534;28;20516;-79
2023/10/10 00:45:09;;;;;;;11.77;5.20;;;14.70;99.90;;;;;;5054674;28;20401;-79
2023/10/10 00:47:43;;;;;;;;;;;14.70;99.90;;;;;;5055110;28;20862;-79
2023/10/10 00:50:16;;;;;;;10.02;5.93;;;14.70;99.90;;;;;;5054536;28;19917;-79
2023/10/10 00:52:55;;;;;;;11.60;5.22;;;14.70;99.90;;;;;;5054754;28;20566;-79
2023/10/10 00:55:27;;;;;;;14.25;6.50;;;14.70;99.90;;;;;;5054644;28;20045;-79
2023/10/10 00:57:56;;;;;;;10.23;5.72;;;14.60;99.90;;;;;;5055573;28;20099;-79
2023/10/10 01:00:25;;;;;;;15.77;6.20;;;14.60;99.90;;;;;;5054502;28;20044;-79
2023/10/10 01:03:01;;;;;;;12.00;6.25;;;14.50;99.90;;;;;;5054213;28;20049;-79
2023/10/10 01:05:39;;;;;;;16.23;6.43;;;14.60;99.90;;;;;;5054610;28;20048;-79
2023/10/10 01:08:07;;;;;;;13.05;6.15;;;14.60;99.90;;;;;;5055546;28;20045;-79
2023/10/10 01:10:42;;;;;;;12.00;5.72;;;14.50;99.90;;;;;;5054213;28;20472;-79
2023/10/10 01:13:10;;;;;;;9.90;5.40;;;14.50;99.90;;;;;;5054317;28;20049;-79
2023/10/10 01:15:36;;;;;;;9.70;6.30;;;14.60;99.90;;;;;;5054975;28;20041;-79
2023/10/10 01:18:03;;;;;;;14.23;6.07;;;14.50;99.90;;;;;;5054284;28;20087;-79
2023/10/10 01:20:45;;;;;;;11.88;6.30;;;14.50;99.90;;;;;;5054310;28;20056;-78
2023/10/10 01:23:12;;;;;;;12.73;5.85;;;14.50;99.90;;;;;;5054137;28;20528;-79
2023/10/10 01:28:33;;;;;;;14.32;6.22;;;14.50;99.90;;;;;;5053736;28;20056;-79
2023/10/10 01:31:04;;;;;;;12.93;6.10;;;14.40;99.90;;;;;;5054094;28;20131;-79
2023/10/10 01:36:03;;;;;;;9.45;5.43;;;14.40;99.90;;;;;;5053657;28;20488;-78
2023/10/10 01:38:55;;;;;;;15.45;5.78;;;14.40;99.90;;;;;;5053915;28;20545;-79
2023/10/10 01:41:23;;;;;;;12.38;5.93;;;14.40;99.90;;;;;;5054803;28;20063;-79
2023/10/10 01:43:53;;;;;;;14.65;6.40;;;14.30;99.90;;;;;;5053540;28;20049;-79
2023/10/10 01:46:28;;;;;;;10.95;5.95;;;14.40;99.90;;;;;;5053694;28;20492;-79
2023/10/10 01:48:57;;;;;;;15.23;6.30;;;14.40;99.90;;;;;;5053687;28;20080;-79
2023/10/10 01:51:29;;;;;;;14.90;6.40;;;14.50;99.90;;;;;;5054676;28;20041;-79
2023/10/10 01:53:57;;;;;;;14.80;6.97;;;14.40;99.90;;;;;;5053428;28;20120;-79
2023/10/10 01:56:26;;;;;;;16.80;6.60;;;14.50;99.90;;;;;;5053231;28;20052;-78
2023/10/10 01:58:53;;;;;;;15.48;6.63;;;14.40;99.90;;;;;;5053112;28;20055;-79
2023/10/10 02:01:20;;;;;;;12.63;6.63;;;14.50;99.90;;;;;;5053359;28;20366;-78
2023/10/10 02:03:48;;;;;;;12.48;6.43;;;14.50;99.90;;;;;;5053375;28;20033;-79
2023/10/10 02:06:23;;;;;;;10.88;6.13;;;14.50;99.90;;;;;;5053159;28;20124;-79
2023/10/10 02:08:52;;;;;;;14.38;6.03;;;14.50;99.90;;;;;;5053108;28;20040;-79
2023/10/10 02:11:21;;;;;;;16.08;6.53;;;14.50;99.90;;;;;;5053158;28;20057;-79
2023/10/10 02:13:47;;;;;;;13.93;6.75;;;14.50;99.90;;;;;;5053146;28;20063;-79
2023/10/10 02:16:18;;;;;;;15.45;7.15;;;14.60;99.90;;;;;;5053960;28;20064;-79
2023/10/10 02:18:44;;;;;;;19.10;6.82;;;14.60;99.90;;;;;;5053170;28;20396;-79
2023/10/10 02:21:17;;;;;;;14.32;6.60;;;14.60;99.90;;;;;;5052820;28;20485;-79
2023/10/10 02:23:46;;;;;;;10.60;6.25;;;14.50;99.90;;;;;;5053903;28;20370;-79
2023/10/10 02:26:35;;;;;;;19.05;7.30;;;14.50;99.90;;;;;;5052125;28;20053;-79
2023/10/10 02:29:18;;;;;;;13.63;6.75;;;14.60;99.90;;;;;;5053056;28;20044;-79
2023/10/10 02:31:51;;;;;;;14.80;6.47;;;14.40;99.90;;;;;;5053034;28;20389;-79
2023/10/10 02:34:19;;;;;;;16.40;7.15;;;14.40;99.90;;;;;;5054001;28;20093;-79
2023/10/10 02:36:58;;;;;;;14.00;6.15;;;14.50;99.90;;;;;;5053802;28;20049;-79
2023/10/10 02:39:29;;;;;;;14.82;6.93;;;14.40;99.90;;;;;;5052415;28;20085;-79
2023/10/10 02:41:59;;;;;;;12.82;7.30;;;14.40;99.90;;;;;;5052508;28;20056;-79
2023/10/10 02:46:59;;;;;;;11.90;7.35;;;14.30;99.90;;;;;;5053802;28;20052;-79
2023/10/10 02:51:55;;;;;;;14.02;7.57;;;14.30;99.90;;;;;;5052629;28;20136;-79
2023/10/10 02:54:28;;;;;;;15.73;7.90;;;14.30;99.90;;;;;;5052444;28;20057;-79
2023/10/10 02:57:26;;;;;;;15.80;7.22;;;14.30;99.90;;;;;;5053375;28;20468;-79
2023/10/10 02:59:45;;;;;;;14.43;7.30;;;14.30;99.90;;;;;;5052204;28;20444;-79
2023/10/10 03:02:22;;;;;;;15.88;7.38;;;14.20;99.90;;;;;;5052244;28;20131;-79
2023/10/10 03:07:29;;;;;;;18.48;7.53;;;14.20;99.90;;;;;;5052426;28;20083;-79
2023/10/10 03:12:43;;;;;;;15.63;8.30;;;14.30;99.90;;;;;;5052129;28;20072;-79
2023/10/10 03:15:15;;;;;;;16.38;8.27;;;14.30;99.90;;;;;;5053311;28;20041;-79
2023/10/10 03:20:38;;;;;;;16.25;9.20;;;14.30;99.90;;;;;;5053365;28;20037;-79
2023/10/10 03:25:50;;;;;;;17.23;8.82;;;14.40;99.90;;;;;;5052051;28;20049;-78
2023/10/10 03:31:23;;;;;;;16.48;8.02;;;14.40;99.90;;;;;;5053225;28;20374;-79
2023/10/10 03:34:04;;;;;;;13.77;8.43;;;14.50;99.90;;;;;;5052299;28;20063;-78
2023/10/10 03:36:38;;;;;;;18.80;8.63;;;14.40;99.90;;;;;;5051901;28;20045;-78
2023/10/10 05:25:51;;;;;;;24.70;11.57;;;14.90;99.90;;;;;;5053945;28;20063;-78
2023/10/10 05:28:18;;;;;;;20.65;11.13;;;14.90;99.90;;;;;;5054157;28;20056;-78
2023/10/10 05:30:45;;;;;;;24.25;12.15;;;14.80;99.90;;;;;;5053831;28;20128;-78
2023/10/10 05:33:12;;;;;;;27.98;12.23;;;14.80;99.90;;;;;;5053558;28;20048;-78
2023/10/10 05:35:49;;;;;;;26.63;13.07;;;14.80;99.90;;;;;;5053445;28;20049;-78
2023/10/10 05:38:15;;;;;;;23.77;12.93;;;15.00;99.90;;;;;;5053862;28;20106;-78
2023/10/10 05:40:43;;;;;;;25.98;13.80;;;15.00;99.90;;;;;;5053432;28;20136;-78
2023/10/10 05:43:15;;;;;;;24.15;13.82;;;14.90;99.90;;;;;;5054823;28;20045;-78
2023/10/10 05:45:45;;;;;;;36.80;15.23;;;14.80;99.90;;;;;;5053664;28;20055;-78
2023/10/10 05:48:12;;;;;;;30.92;14.55;;;14.90;99.90;;;;;;5053278;28;20427;-78
2023/10/10 05:50:40;;;;;;;36.10;15.95;;;14.90;99.90;;;;;;5053241;28;20413;-78
2023/10/10 05:53:06;;;;;;;34.30;15.20;;;14.90;99.90;;;;;;5053288;28;20048;-78
2023/10/10 05:55:35;;;;;;;35.58;16.63;;;14.80;99.90;;;;;;5053365;28;20053;-78
2023/10/10 05:58:02;;;;;;;33.33;15.90;;;14.90;99.90;;;;;;5052921;28;20413;-78
2023/10/10 06:00:32;;;;;;;36.95;18.00;;;14.80;99.90;;;;;;5052152;28;20033;-78
2023/10/10 06:02:58;;;;;;;42.60;19.15;;;14.70;99.90;;;;;;5054268;28;20548;-78
2023/10/10 06:05:24;;;;;;;48.10;20.38;;;14.90;99.90;;;;;;5054386;28;20124;-78
2023/10/10 06:07:49;;;;;;;43.28;19.73;;;14.90;99.90;;;;;;5054089;28;20106;-78
2023/10/10 06:10:18;;;;;;;46.92;19.02;;;14.80;99.90;;;;;;5052856;28;20045;-79
2023/10/10 06:12:48;;;;;;;49.97;21.00;;;14.90;99.90;;;;;;5052722;28;20036;-79
2023/10/10 06:15:17;;;;;;;52.78;21.00;;;14.80;99.90;;;;;;5054103;28;20037;-78
2023/10/10 06:17:48;;;;;;;53.08;22.27;;;14.90;99.90;;;;;;5053009;28;20060;-78
2023/10/10 06:20:21;;;;;;;52.35;20.40;;;14.80;99.90;;;;;;5052935;28;20086;-78
2023/10/10 06:22:47;;;;;;;;;;;14.90;99.90;;;;;;5046287;28;20045;-78
2023/10/10 06:25:17;;;;;;;44.97;19.20;;;14.80;99.90;;;;;;5033611;28;19952;-78
2023/10/10 06:27:46;;;;;;;49.15;19.02;;;14.90;99.90;;;;;;5033775;28;20060;-78
2023/10/10 06:30:18;;;;;;;50.70;20.73;;;14.90;99.90;;;;;;5032531;28;20045;-77
2023/10/10 06:32:46;;;;;;;45.30;19.92;;;14.90;99.90;;;;;;5032310;28;20536;-78
2023/10/10 06:37:45;;;;;;;53.45;22.65;;;15.00;99.90;;;;;;5032238;28;20409;-78
2023/10/10 06:40:14;;;;;;;58.65;23.60;;;15.00;99.90;;;;;;5032256;28;20056;-77
2023/10/10 06:42:46;;;;;;;62.75;24.40;;;14.90;99.90;;;;;;5032377;28;20053;-78
2023/10/10 06:45:21;;;;;;;63.90;23.05;;;14.90;99.90;;;;;;5032484;28;20098;-77
2023/10/10 06:47:50;;;;;;;61.15;24.42;;;15.00;99.90;;;;;;5031986;28;20052;-78
2023/10/10 06:50:21;;;;;;;57.85;23.98;;;14.90;99.90;;;;;;5032338;28;20060;-78
2023/10/10 06:52:57;;;;;;;57.15;22.70;;;14.90;99.90;;;;;;5031987;28;20060;-77
2023/10/10 06:55:24;;;;;;;57.55;23.42;;;15.00;99.90;;;;;;5032255;28;20057;-77
2023/10/10 06:57:59;;;;;;;53.05;23.20;;;15.00;99.90;;;;;;5032045;28;20042;-77
2023/10/10 07:03:18;;;;;;;65.78;25.67;;;15.10;99.90;;;;;;5033190;28;20382;-77
2023/10/10 07:05:43;;;;;;;;;;;15.00;99.90;;;;;;5032358;28;20492;-78
2023/10/10 07:08:24;;;;;;;64.07;24.65;;;15.10;99.90;;;;;;5031791;28;20015;-78
2023/10/10 07:10:53;;;;;;;56.22;24.65;;;15.20;99.90;;;;;;5032154;28;20481;-76
2023/10/10 07:13:20;;;;;;;57.75;24.05;;;15.20;99.90;;;;;;5037845;28;20111;-77
2023/10/10 07:15:52;;;;;;;64.18;26.85;;;15.30;99.90;;;;;;5038109;28;20068;-78
2023/10/10 07:18:23;;;;;;;61.23;26.23;;;15.20;99.90;;;;;;5037430;28;20072;-77
2023/10/10 07:21:04;;;;;;;57.88;26.13;;;15.30;99.90;;;;;;5037770;28;20328;-77
2023/10/10 07:23:37;;;;;;;59.22;26.08;;;15.20;99.90;;;;;;5038386;28;20057;-78
2023/10/10 07:26:23;;;;;;;57.88;25.00;;;15.30;99.90;;;;;;5038264;28;20053;-78
2023/10/10 07:28:49;;;;;;;60.20;25.48;;;15.30;99.90;;;;;;5038785;28;20114;-78
2023/10/10 07:31:20;;;;;;;57.80;26.10;;;15.30;99.90;;;;;;5039748;28;20393;-77
2023/10/10 07:33:55;;;;;;;69.80;28.23;;;15.40;99.90;;;;;;5038458;28;20083;-78
2023/10/10 07:36:25;;;;;;;;;;;15.30;99.90;;;;;;5038867;28;20128;-78
2023/10/10 07:41:44;;;;;;;72.50;31.20;;;15.40;99.90;;;;;;5037999;28;20053;-77
2023/10/10 07:44:10;;;;;;;73.53;31.13;;;15.40;99.90;;;;;;5038109;28;20046;-77
2023/10/10 07:46:36;;;;;;;68.28;30.92;;;15.60;99.90;;;;;;5038785;28;20336;-77
2023/10/10 07:49:03;;;;;;;75.38;32.90;;;15.50;99.90;;;;;;5038980;28;20130;-78
2023/10/10 07:51:29;;;;;;;69.05;32.03;;;15.50;99.90;;;;;;5038544;28;20049;-78
2023/10/10 07:54:28;;;;;;;73.30;32.42;;;15.50;99.90;;;;;;5038196;28;20473;-78
2023/10/10 07:56:47;;;;;;;75.47;34.30;;;15.70;99.90;;;;;;5039084;28;20065;-77
2023/10/10 07:59:13;;;;;;;71.65;33.58;;;15.70;99.90;;;;;;5038358;28;20397;-77
2023/10/10 08:01:42;;;;;;;71.88;33.95;;;15.80;99.90;;;;;;5038428;28;20045;-77
2023/10/10 08:04:07;;;;;;;64.32;32.15;;;15.80;99.90;;;;;;5037977;28;20053;-78
2023/10/10 08:06:33;;;;;;;68.47;33.78;;;15.90;99.90;;;;;;5038346;28;20050;-78
2023/10/10 08:11:44;;;;;;;63.53;34.00;;;15.80;99.90;;;;;;5038462;28;20053;-78
2023/10/10 08:14:10;;;;;;;67.43;32.30;;;15.90;99.90;;;;;;5038112;28;20041;-78
2023/10/10 08:16:39;;;;;;;63.70;32.83;;;15.90;99.90;;;;;;5039429;28;20103;-78
2023/10/10 08:19:06;;;;;;;57.25;30.30;;;16.10;99.90;;;;;;5038027;28;20053;-78
2023/10/10 08:21:39;;;;;;;64.13;31.83;;;16.10;99.90;;;;;;5039429;28;20133;-78
2023/10/10 08:24:08;;;;;;;62.13;29.33;;;16.10;99.90;;;;;;5035217;28;20081;-78
2023/10/10 08:26:41;;;;;;;66.85;32.53;;;16.10;99.90;;;;;;5034895;28;20041;-78
2023/10/10 08:29:12;;;;;;;57.40;31.30;;;16.20;99.90;;;;;;5035354;28;20047;-78
2023/10/10 08:31:39;;;;;;;61.92;30.63;;;16.30;99.90;;;;;;5034877;28;20045;-78
2023/10/10 08:34:09;;;;;;;57.70;28.08;;;16.30;99.90;;;;;;5034681;28;20496;-77
2023/10/10 08:36:37;;;;;;;60.40;29.88;;;16.30;99.90;;;;;;5034798;28;20053;-78
2023/10/10 08:39:49;;;;;;;54.28;30.23;;;16.40;99.90;;;;;;5034860;28;20056;-78
2023/10/10 08:41:55;;;;;;;58.23;30.00;;;16.50;99.90;;;;;;5024805;28;20053;-78
2023/10/10 08:44:23;;;;;;;55.35;30.27;;;16.60;99.90;;;;;;5034674;28;20042;-79
2023/10/10 08:46:58;;;;;;;55.05;29.60;;;16.60;99.90;;;;;;5034797;28;20176;-78
2023/10/10 08:49:28;;;;;;;52.58;29.23;;;16.70;99.90;;;;;;5035732;28;20044;-77
2023/10/10 08:51:58;;;;;;;52.55;29.77;;;16.60;99.90;;;;;;5034637;28;20095;-79
2023/10/10 08:54:25;;;;;;;58.20;30.73;;;16.70;99.90;;;;;;5034637;28;20083;-78
2023/10/10 08:56:59;;;;;;;52.20;29.52;;;16.60;99.90;;;;;;5034318;28;20044;-78
2023/10/10 08:59:28;;;;;;;53.00;28.90;;;16.60;99.90;;;;;;5035764;28;20038;-78
2023/10/10 09:01:55;;;;;;;57.38;29.42;;;16.70;99.90;;;;;;5034442;28;20053;-78
2023/10/10 09:04:27;;;;;;;52.20;30.63;;;16.80;99.90;;;;;;5034273;28;20397;-78
2023/10/10 09:06:59;;;;;;;50.50;30.25;;;16.80;99.90;;;;;;5034552;28;20053;-79
2023/10/10 09:09:34;;;;;;;;;;;16.80;99.90;;;;;;5035769;28;20085;-79
2023/10/10 09:12:04;;;;;;;57.85;30.90;;;16.70;99.90;;;;;;5034020;28;19921;-79
2023/10/10 09:14:41;;;;;;;53.70;29.90;;;16.80;99.90;;;;;;5033938;28;20444;-79
2023/10/10 09:17:08;;;;;;;49.92;29.40;;;16.80;99.90;;;;;;5033910;28;20183;-79
2023/10/10 09:19:39;;;;;;;58.10;30.63;;;16.80;99.90;;;;;;5034149;28;20128;-79
2023/10/10 09:22:12;;;;;;;52.20;30.00;;;17.00;99.90;;;;;;5033768;28;20049;-79
2023/10/10 09:24:40;;;;;;;53.88;32.15;;;17.00;99.90;;;;;;5034032;28;20049;-79
2023/10/10 09:27:21;;;;;;;54.70;31.75;;;17.00;99.90;;;;;;5033936;28;20057;-79
2023/10/10 09:29:54;;;;;;;60.25;33.10;;;17.10;99.90;;;;;;5033861;28;20397;-79
2023/10/10 09:32:34;;;;;;;;;;;17.10;99.90;;;;;;5034248;28;20132;-79
2023/10/10 09:35:00;;;;;;;62.17;32.40;;;17.20;99.90;;;;;;5033604;28;20069;-79
2023/10/10 09:37:34;;;;;;;55.63;30.90;;;17.20;99.90;;;;;;5033367;28;20524;-79
2023/10/10 09:40:04;;;;;;;53.15;30.92;;;17.30;99.90;;;;;;5033319;28;20060;-79
2023/10/10 09:43:24;;;;;;;58.90;32.80;;;17.30;99.90;;;;;;5034868;28;20050;-79
2023/10/10 09:45:51;;;;;;;53.58;32.78;;;17.30;99.90;;;;;;5019680;28;20068;-79
2023/10/10 09:48:33;;;;;;;56.10;32.63;;;17.30;99.90;;;;;;5033291;28;20057;-78
2023/10/10 09:51:30;;;;;;;55.13;31.70;;;17.40;99.90;;;;;;5034648;28;20045;-78
2023/10/10 09:54:15;;;;;;;57.03;32.33;;;17.40;99.90;;;;;;5034694;28;20129;-78
2023/10/10 09:56:50;;;;;;;54.05;32.97;;;17.50;99.90;;;;;;5033289;28;20080;-78
2023/10/10 09:59:19;;;;;;;61.42;32.03;;;17.50;99.90;;;;;;5033435;28;20045;-78
2023/10/10 10:01:47;;;;;;;58.55;34.13;;;17.60;99.90;;;;;;5033125;28;20053;-78
2023/10/10 10:04:19;;;;;;;56.65;33.67;;;17.60;99.90;;;;;;5033297;28;20050;-78
2023/10/10 10:07:12;;;;;;;55.35;32.53;;;17.70;99.90;;;;;;5032978;28;20434;-78
2023/10/10 10:09:56;;;;;;;62.25;34.70;;;17.70;99.90;;;;;;5033295;28;20103;-78
2023/10/10 10:12:41;;;;;;;54.13;33.38;;;17.80;99.90;;;;;;5032915;28;20046;-78
2023/10/10 10:15:48;;;;;;;56.22;32.88;;;17.90;99.90;;;;;;5032757;28;20045;-78
2023/10/10 10:18:44;;;;;;;55.05;31.75;;;18.00;99.90;;;;;;5032659;28;20052;-78
2023/10/10 10:21:19;;;;;;;56.25;33.28;;;18.00;99.90;;;;;;5033135;28;20057;-78
2023/10/10 10:23:55;;;;;;;59.25;34.20;;;18.10;99.90;;;;;;5033247;28;20037;-78
2023/10/10 10:28:57;;;;;;;53.25;32.80;;;18.40;99.90;;;;;;5032730;28;20053;-78
2023/10/10 10:31:35;;;;;;;55.50;33.28;;;18.50;99.90;;;;;;5032800;28;20465;-78
2023/10/10 10:37:02;;;;;;;53.80;33.90;;;18.60;99.90;;;;;;5032485;28;20202;-78
2023/10/10 10:39:35;;;;;;;58.42;31.80;;;18.80;99.90;;;;;;5032476;28;20387;-78
2023/10/10 10:42:02;;;;;;;50.72;30.08;;;18.80;99.90;;;;;;5033877;28;20041;-78
2023/10/10 10:47:45;;;;;;;50.33;31.42;;;19.00;99.90;;;;;;5031569;28;20128;-78
2023/10/10 10:50:40;;;;;;;55.88;32.60;;;19.10;99.90;;;;;;5032241;28;20046;-78
2023/10/10 10:53:31;;;;;;;50.35;30.63;;;19.10;99.90;;;;;;5033366;28;20401;-78
2023/10/10 10:56:37;;;;;;;54.15;32.10;;;19.20;99.90;;;;;;5032561;28;20083;-78
2023/10/10 11:01:21;;;;;;;52.45;31.55;;;19.10;99.90;;;;;;5033464;28;20511;-78
2023/10/10 11:03:51;;;;;;;47.55;29.52;;;19.10;99.90;;;;;;5033503;28;20037;-79
2023/10/10 11:06:26;;;;;;;53.05;32.63;;;19.10;99.90;;;;;;5032369;28;20045;-78
2023/10/10 11:08:52;;;;;;;50.00;32.05;;;19.10;99.90;;;;;;5032328;28;20048;-79
2023/10/10 11:11:27;;;;;;;50.95;32.28;;;19.10;99.90;;;;;;5032293;28;20481;-79
2023/10/10 11:13:54;;;;;;;53.70;31.95;;;19.10;99.90;;;;;;5032290;28;20049;-79
2023/10/10 11:16:28;;;;;;;48.10;32.58;;;19.00;99.90;;;;;;5031986;28;20049;-79
2023/10/10 11:19:12;;;;;;;44.35;31.13;;;19.10;99.90;;;;;;5033385;28;20486;-78
2023/10/10 11:21:49;;;;;;;50.70;31.38;;;19.20;99.90;;;;;;5031914;28;20493;-78
2023/10/10 11:24:25;;;;;;;49.88;31.55;;;19.40;99.90;;;;;;5032028;28;20042;-78
2023/10/10 11:29:28;;;;;;;49.03;30.25;;;19.50;99.90;;;;;;5031876;28;20107;-78
2023/10/10 11:32:08;;;;;;;51.38;29.38;;;19.60;99.90;;;;;;5032156;28;20068;-78
2023/10/10 11:34:49;;;;;;;46.08;29.38;;;19.60;99.90;;;;;;5033131;28;20042;-78
2023/10/10 11:37:20;;;;;;;48.42;29.65;;;19.50;99.90;;;;;;5031933;28;20053;-79
2023/10/10 11:43:05;;;;;;;43.53;26.67;;;19.70;99.90;;;;;;5031572;28;20137;-78
2023/10/10 11:45:39;;;;;;;44.17;28.85;;;19.80;99.90;;;;;;5032033;28;20052;-78
2023/10/10 11:48:14;;;;;;;47.80;28.02;;;19.80;99.90;;;;;;5033407;28;20033;-78
2023/10/10 11:50:51;;;;;;;45.05;29.05;;;19.80;99.90;;;;;;5031981;28;20054;-79
2023/10/10 11:53:27;;;;;;;46.15;28.88;;;19.80;99.90;;;;;;5032897;28;20120;-79
2023/10/10 11:56:01;;;;;;;47.17;28.73;;;19.90;99.90;;;;;;5031855;28;20049;-79
2023/10/10 11:58:36;;;;;;;45.53;29.63;;;20.00;99.90;;;;;;5034689;28;20038;-79
2023/10/10 12:01:17;;;;;;;45.15;28.08;;;20.10;99.90;;;;;;5035616;28;20052;-79
2023/10/10 12:03:43;;;;;;;50.33;30.55;;;20.20;99.90;;;;;;5036750;28;20053;-78
2023/10/10 12:06:26;;;;;;;43.85;27.52;;;20.30;99.90;;;;;;5035644;28;20089;-79
2023/10/10 12:08:53;;;;;;;43.58;25.70;;;20.40;99.90;;;;;;5035571;28;20490;-79
2023/10/10 12:11:22;;;;;;;40.63;25.13;;;20.40;99.90;;;;;;5035253;28;20049;-79
2023/10/10 12:13:52;;;;;;;38.03;24.45;;;20.50;99.90;;;;;;5035273;28;20045;-78
2023/10/10 12:16:19;;;;;;;42.28;25.58;;;20.60;99.90;;;;;;5036425;28;20037;-78
2023/10/10 12:18:52;;;;;;;46.13;25.25;;;20.60;99.90;;;;;;5035331;28;20176;-78
2023/10/10 12:21:20;;;;;;;42.63;25.52;;;20.60;99.90;;;;;;5035109;28;20053;-79
2023/10/10 12:23:54;;;;;;;42.22;26.60;;;20.70;99.90;;;;;;5035168;28;20120;-79
2023/10/10 12:26:29;;;;;;;41.23;25.57;;;20.60;99.90;;;;;;5036419;28;20041;-79
2023/10/10 12:28:54;;;;;;;41.17;27.27;;;20.60;99.90;;;;;;5035054;28;20324;-78
2023/10/10 12:31:21;;;;;;;42.88;26.08;;;20.50;99.90;;;;;;5035269;28;20138;-79
2023/10/10 12:33:48;;;;;;;41.28;25.20;;;20.50;99.90;;;;;;5035126;28;20049;-78
2023/10/10 12:36:15;;;;;;;41.33;25.05;;;20.50;99.90;;;;;;5034847;28;20057;-78
2023/10/10 12:38:41;;;;;;;46.83;26.98;;;20.50;99.90;;;;;;5034597;28;20049;-78
2023/10/10 12:41:11;;;;;;;43.78;26.67;;;20.50;99.90;;;;;;5035849;28;20060;-78
2023/10/10 12:43:37;;;;;;;43.65;24.88;;;20.50;99.90;;;;;;5034538;28;20054;-78
2023/10/10 12:46:06;;;;;;;39.50;25.98;;;20.60;99.90;;;;;;5035037;28;20048;-78
2023/10/10 12:48:38;;;;;;;42.22;24.33;;;20.60;99.90;;;;;;5034373;28;20060;-79
2023/10/10 12:51:09;;;;;;;37.40;21.55;;;20.50;99.90;;;;;;5034597;28;20084;-78
2023/10/10 12:53:39;;;;;;;44.67;24.15;;;20.50;99.90;;;;;;5034703;28;20103;-78
2023/10/10 12:56:06;;;;;;;40.40;25.10;;;20.30;99.90;;;;;;5034312;28;20049;-79
2023/10/10 12:58:32;;;;;;;40.03;24.80;;;20.30;99.90;;;;;;5034291;28;20493;-79
2023/10/10 13:00:58;;;;;;;39.92;23.83;;;20.20;99.90;;;;;;5034273;28;20400;-78
2023/10/10 13:03:28;;;;;;;38.50;22.95;;;20.20;99.90;;;;;;5035450;28;20576;-79
2023/10/10 13:06:03;;;;;;;40.08;24.13;;;20.20;99.90;;;;;;5034431;28;20140;-79
2023/10/10 13:08:39;;;;;;;37.20;23.17;;;20.20;99.90;;;;;;5034485;28;20033;-79
2023/10/10 13:11:17;;;;;;;33.58;21.88;;;20.20;99.90;;;;;;5034628;28;20037;-78
2023/10/10 13:13:51;;;;;;;36.50;24.42;;;20.10;99.90;;;;;;5034100;28;20089;-79
2023/10/10 13:19:06;;;;;;;39.05;23.90;;;20.00;99.90;;;;;;5035294;28;20394;-78
2023/10/10 13:21:34;;;;;;;39.05;24.35;;;20.00;99.90;;;;;;5033904;28;20042;-79
2023/10/10 13:24:01;;;;;;;44.08;24.38;;;19.90;99.90;;;;;;5033955;28;20041;-79
2023/10/10 13:26:31;;;;;;;42.85;25.23;;;19.90;99.90;;;;;;5035325;28;20045;-79
2023/10/10 13:28:57;;;;;;;38.35;25.05;;;19.80;99.90;;;;;;5034150;28;20535;-79
2023/10/10 13:31:24;;;;;;;42.30;24.30;;;19.90;99.90;;;;;;5033708;28;20046;-79
2023/10/10 13:33:50;;;;;;;40.53;24.98;;;19.90;99.90;;;;;;5034068;28;20580;-78
2023/10/10 13:36:16;;;;;;;38.88;25.67;;;19.80;99.90;;;;;;5034781;28;20033;-78
2023/10/10 13:38:49;;;;;;;39.72;24.63;;;19.80;99.90;;;;;;5033681;28;20452;-79
2023/10/10 13:41:21;;;;;;;43.42;25.58;;;19.80;99.90;;;;;;5033448;28;20456;-79
2023/10/10 13:43:47;;;;;;;46.13;26.77;;;19.80;99.90;;;;;;5033390;28;20489;-79
2023/10/10 13:46:14;;;;;;;39.97;24.75;;;19.80;99.90;;;;;;5034696;28;20052;-79
2023/10/10 13:48:40;;;;;;;46.95;29.95;;;19.80;99.90;;;;;;5034514;28;20060;-79
2023/10/10 13:51:07;;;;;;;49.20;29.20;;;19.80;99.90;;;;;;5033283;28;20042;-79
2023/10/10 13:53:34;;;;;;;46.45;29.10;;;19.80;99.90;;;;;;5033281;28;20500;-79
2023/10/10 13:56:03;;;;;;;44.53;28.27;;;19.70;99.90;;;;;;5034510;28;20084;-79
2023/10/10 13:58:30;;;;;;;49.00;31.52;;;19.70;99.90;;;;;;5034413;28;20041;-79
2023/10/10 14:01:03;;;;;;;53.42;31.73;;;19.60;99.90;;;;;;5033074;28;20116;-78
2023/10/10 14:03:29;;;;;;;50.35;30.38;;;19.70;99.90;;;;;;5033187;28;20054;-79
2023/10/10 14:06:10;;;;;;;47.92;30.67;;;19.60;99.90;;;;;;5033104;28;20056;-79
2023/10/10 14:08:35;;;;;;;48.85;30.80;;;19.60;99.90;;;;;;5033034;28;20081;-79
2023/10/10 14:11:02;;;;;;;51.13;29.38;;;19.50;99.90;;;;;;5032943;28;20084;-79
2023/10/10 14:13:28;;;;;;;49.55;29.73;;;19.50;99.90;;;;;;5033025;28;20041;-79
2023/10/10 14:15:55;;;;;;;51.20;30.02;;;19.40;99.90;;;;;;5032977;28;20045;-79
2023/10/10 14:18:29;;;;;;;50.25;31.65;;;19.40;99.90;;;;;;5034304;28;20045;-79
2023/10/10 14:21:01;;;;;;;49.70;31.13;;;19.30;99.90;;;;;;5032413;28;20050;-79
2023/10/10 14:23:29;;;;;;;51.10;32.38;;;19.30;99.90;;;;;;5032543;28;20059;-78
2023/10/10 14:26:14;;;;;;;50.92;32.58;;;19.30;99.90;;;;;;5032896;28;20057;-79
2023/10/10 14:28:51;;;;;;;55.40;35.17;;;19.20;99.90;;;;;;5032640;28;20037;-78
2023/10/10 14:31:22;;;;;;;56.95;33.88;;;19.10;99.90;;;;;;5033952;28;20050;-79
2023/10/10 14:33:49;;;;;;;57.90;34.55;;;19.10;99.90;;;;;;5032476;28;20041;-79
2023/10/10 14:36:15;;;;;;;57.90;35.58;;;19.10;99.90;;;;;;5033920;28;20053;-79
2023/10/10 14:38:44;;;;;;;61.58;34.90;;;19.10;99.90;;;;;;5033364;28;20489;-78
2023/10/10 14:41:12;;;;;;;58.67;35.95;;;19.10;99.90;;;;;;5033494;28;20506;-79
2023/10/10 14:43:38;;;;;;;59.47;37.40;;;19.10;99.90;;;;;;5032712;28;20057;-79
2023/10/10 14:46:03;;;;;;;57.13;36.97;;;19.10;99.90;;;;;;5032469;28;20071;-79
2023/10/10 14:48:30;;;;;;;63.63;39.95;;;19.10;99.90;;;;;;5033696;28;20068;-79
2023/10/10 14:50:57;;;;;;;66.00;41.28;;;19.10;99.90;;;;;;5032220;28;20053;-79
2023/10/10 14:53:23;;;;;;;58.08;38.53;;;19.10;99.90;;;;;;5032440;28;20148;-79
2023/10/10 14:55:51;;;;;;;60.65;41.67;;;19.10;99.90;;;;;;5032341;28;20132;-79
2023/10/10 14:58:21;;;;;;;66.18;42.13;;;19.10;99.90;;;;;;5032079;28;20049;-79
2023/10/10 15:00:49;;;;;;;66.75;43.97;;;19.10;99.90;;;;;;5033436;28;20489;-79
2023/10/10 15:03:16;;;;;;;65.72;42.00;;;19.10;99.90;;;;;;5032337;28;20576;-79
2023/10/10 15:05:47;;;;;;;66.82;44.83;;;19.20;99.90;;;;;;5032340;28;20049;-79
2023/10/10 15:08:20;;;;;;;63.63;42.78;;;19.10;99.90;;;;;;5032024;28;20041;-79
2023/10/10 15:10:51;;;;;;;64.03;44.97;;;19.10;99.90;;;;;;5032252;28;20050;-79
2023/10/10 15:13:17;;;;;;;66.45;43.60;;;19.10;99.90;;;;;;5033278;28;20436;-79
2023/10/10 15:15:46;;;;;;;71.53;44.88;;;19.00;99.90;;;;;;5032096;28;20081;-79
2023/10/10 15:18:18;;;;;;;67.43;44.92;;;19.10;99.90;;;;;;5032113;28;20096;-79
2023/10/10 15:20:48;;;;;;;71.25;42.92;;;19.00;99.90;;;;;;5032178;28;20069;-79
2023/10/10 15:23:20;;;;;;;68.80;44.05;;;19.00;99.90;;;;;;5031953;28;20049;-79
2023/10/10 15:25:52;;;;;;;;;;;19.00;99.90;;;;;;5033835;28;20049;-79
2023/10/10 15:28:18;;;;;;;64.97;41.47;;;19.00;99.90;;;;;;5032116;28;19925;-79
2023/10/10 15:30:44;;;;;;;65.95;43.65;;;19.00;99.90;;;;;;5031906;28;20520;-79
2023/10/10 15:33:10;;;;;;;62.15;41.38;;;19.00;99.90;;;;;;5034271;28;20053;-79
2023/10/10 15:35:39;;;;;;;65.40;42.08;;;18.90;99.90;;;;;;5037288;28;20054;-79